sensor_id;sensor_type;location;lat;lon;timestamp;P1;durP1;ratioP1;P2;durP2;ratioP2
4391;SDS011;2210;51.938;8.488;2024-02-04T00:02:09;2.40;;;2.20;;
4391;SDS011;2210;51.938;8.488;2024-02-04T00:06:13;6.83;;;2.27;;
4391;SDS011;2210;51.938;8.488;2024-02-04T00:10:14;2.10;;;2.00;;
4391;SDS011;2210;51.938;8.488;2024-02-04T00:14:15;2.60;;;2.00;;
4391;SDS011;2210;51.938;8.488;2024-02-04T00:18:15;2.92;;;2.45;;
4391;SDS011;2210;51.938;8.488;2024-02-04T00:22:16;2.40;;;2.20;;
4391;SDS011;2210;51.938;8.488;2024-02-04T00:26:18;3.10;;;2.33;;
4391;SDS011;2210;51.938;8.488;2024-02-04T00:30:18;3.58;;;2.10;;
4391;SDS011;2210;51.938;8.488;2024-02-04T00:34:19;2.90;;;2.20;;
4391;SDS011;2210;51.938;8.488;2024-02-04T00:38:19;2.70;;;2.50;;
4391;SDS011;2210;51.938;8.488;2024-02-04T00:42:19;1.97;;;1.80;;
4391;SDS011;2210;51.938;8.488;2024-02-04T00:46:19;2.13;;;1.83;;
4391;SDS011;2210;51.938;8.488;2024-02-04T00:50:20;4.60;;;2.50;;
4391;SDS011;2210;51.938;8.488;2024-02-04T00:54:20;2.40;;;2.20;;
4391;SDS011;2210;51.938;8.488;2024-02-04T00:58:20;2.60;;;2.40;;
4391;SDS011;2210;51.938;8.488;2024-02-04T01:02:21;2.60;;;2.30;;
4391;SDS011;2210;51.938;8.488;2024-02-04T01:06:21;2.55;;;2.35;;
4391;SDS011;2210;51.938;8.488;2024-02-04T01:10:24;3.70;;;2.60;;
4391;SDS011;2210;51.938;8.488;2024-02-04T01:14:24;2.80;;;2.60;;
4391;SDS011;2210;51.938;8.488;2024-02-04T01:18:25;3.00;;;2.70;;
4391;SDS011;2210;51.938;8.488;2024-02-04T01:22:25;5.53;;;3.83;;
4391;SDS011;2210;51.938;8.488;2024-02-04T01:26:27;5.13;;;3.13;;
4391;SDS011;2210;51.938;8.488;2024-02-04T01:30:27;4.18;;;3.35;;
4391;SDS011;2210;51.938;8.488;2024-02-04T01:34:30;7.30;;;5.00;;
4391;SDS011;2210;51.938;8.488;2024-02-04T01:38:30;11.20;;;7.33;;
4391;SDS011;2210;51.938;8.488;2024-02-04T01:42:31;11.30;;;7.70;;
4391;SDS011;2210;51.938;8.488;2024-02-04T01:46:31;19.07;;;11.00;;
4391;SDS011;2210;51.938;8.488;2024-02-04T01:50:32;22.63;;;10.50;;
4391;SDS011;2210;51.938;8.488;2024-02-04T01:54:32;20.13;;;10.70;;
4391;SDS011;2210;51.938;8.488;2024-02-04T01:58:33;16.53;;;10.47;;
4391;SDS011;2210;51.938;8.488;2024-02-04T02:02:34;18.37;;;12.43;;
4391;SDS011;2210;51.938;8.488;2024-02-04T02:06:44;21.43;;;12.07;;
4391;SDS011;2210;51.938;8.488;2024-02-04T02:10:48;18.63;;;10.20;;
4391;SDS011;2210;51.938;8.488;2024-02-04T02:15:00;16.40;;;10.57;;
4391;SDS011;2210;51.938;8.488;2024-02-04T02:19:06;14.17;;;8.83;;
4391;SDS011;2210;51.938;8.488;2024-02-04T02:23:29;12.50;;;8.20;;
4391;SDS011;2210;51.938;8.488;2024-02-04T02:27:31;14.10;;;8.13;;
4391;SDS011;2210;51.938;8.488;2024-02-04T02:31:31;9.80;;;7.10;;
4391;SDS011;2210;51.938;8.488;2024-02-04T02:35:31;6.87;;;5.97;;
4391;SDS011;2210;51.938;8.488;2024-02-04T02:39:33;6.90;;;5.97;;
4391;SDS011;2210;51.938;8.488;2024-02-04T02:43:39;7.37;;;5.50;;
4391;SDS011;2210;51.938;8.488;2024-02-04T02:47:47;9.07;;;7.17;;
4391;SDS011;2210;51.938;8.488;2024-02-04T02:51:50;6.67;;;5.97;;
4391;SDS011;2210;51.938;8.488;2024-02-04T02:55:51;6.83;;;5.73;;
4391;SDS011;2210;51.938;8.488;2024-02-04T02:59:51;5.85;;;5.07;;
4391;SDS011;2210;51.938;8.488;2024-02-04T03:03:51;6.13;;;5.18;;
4391;SDS011;2210;51.938;8.488;2024-02-04T03:07:51;4.43;;;4.03;;
4391;SDS011;2210;51.938;8.488;2024-02-04T03:11:52;5.82;;;4.50;;
4391;SDS011;2210;51.938;8.488;2024-02-04T03:15:52;4.00;;;3.60;;
4391;SDS011;2210;51.938;8.488;2024-02-04T03:19:52;3.87;;;3.57;;
4391;SDS011;2210;51.938;8.488;2024-02-04T03:23:54;3.70;;;3.40;;
4391;SDS011;2210;51.938;8.488;2024-02-04T03:27:55;7.68;;;3.65;;
4391;SDS011;2210;51.938;8.488;2024-02-04T03:31:55;3.90;;;3.53;;
4391;SDS011;2210;51.938;8.488;2024-02-04T03:35:56;3.00;;;2.70;;
4391;SDS011;2210;51.938;8.488;2024-02-04T03:39:56;4.35;;;3.33;;
4391;SDS011;2210;51.938;8.488;2024-02-04T03:43:56;3.70;;;3.17;;
4391;SDS011;2210;51.938;8.488;2024-02-04T03:47:57;3.77;;;3.37;;
4391;SDS011;2210;51.938;8.488;2024-02-04T03:51:57;4.18;;;3.40;;
4391;SDS011;2210;51.938;8.488;2024-02-04T03:55:57;4.05;;;3.65;;
4391;SDS011;2210;51.938;8.488;2024-02-04T03:59:57;5.90;;;3.90;;
4391;SDS011;2210;51.938;8.488;2024-02-04T04:03:58;4.95;;;2.88;;
4391;SDS011;2210;51.938;8.488;2024-02-04T04:07:58;2.60;;;2.40;;
4391;SDS011;2210;51.938;8.488;2024-02-04T04:12:01;2.50;;;2.30;;
4391;SDS011;2210;51.938;8.488;2024-02-04T04:16:11;4.63;;;2.30;;
4391;SDS011;2210;51.938;8.488;2024-02-04T04:20:11;2.50;;;2.30;;
4391;SDS011;2210;51.938;8.488;2024-02-04T04:24:11;2.60;;;2.40;;
4391;SDS011;2210;51.938;8.488;2024-02-04T04:28:11;1.88;;;1.77;;
4391;SDS011;2210;51.938;8.488;2024-02-04T04:32:12;3.07;;;2.07;;
4391;SDS011;2210;51.938;8.488;2024-02-04T04:36:12;3.08;;;2.10;;
4391;SDS011;2210;51.938;8.488;2024-02-04T04:40:12;2.33;;;2.13;;
4391;SDS011;2210;51.938;8.488;2024-02-04T04:44:13;2.27;;;2.10;;
4391;SDS011;2210;51.938;8.488;2024-02-04T04:48:13;2.90;;;2.00;;
4391;SDS011;2210;51.938;8.488;2024-02-04T04:52:16;2.85;;;2.10;;
4391;SDS011;2210;51.938;8.488;2024-02-04T04:56:16;2.67;;;2.10;;
4391;SDS011;2210;51.938;8.488;2024-02-04T05:00:17;4.13;;;2.10;;
4391;SDS011;2210;51.938;8.488;2024-02-04T05:04:17;3.43;;;2.07;;
4391;SDS011;2210;51.938;8.488;2024-02-04T05:08:31;2.00;;;1.90;;
4391;SDS011;2210;51.938;8.488;2024-02-04T05:12:32;2.70;;;2.43;;
4391;SDS011;2210;51.938;8.488;2024-02-04T05:16:33;2.63;;;2.43;;
4391;SDS011;2210;51.938;8.488;2024-02-04T05:20:33;1.93;;;1.83;;
4391;SDS011;2210;51.938;8.488;2024-02-04T05:24:34;2.30;;;2.07;;
4391;SDS011;2210;51.938;8.488;2024-02-04T05:28:35;2.60;;;2.40;;
4391;SDS011;2210;51.938;8.488;2024-02-04T05:32:35;4.22;;;2.30;;
4391;SDS011;2210;51.938;8.488;2024-02-04T05:36:35;2.80;;;2.57;;
4391;SDS011;2210;51.938;8.488;2024-02-04T05:40:35;3.37;;;3.07;;
4391;SDS011;2210;51.938;8.488;2024-02-04T05:44:36;3.27;;;2.57;;
4391;SDS011;2210;51.938;8.488;2024-02-04T05:48:36;2.72;;;2.53;;
4391;SDS011;2210;51.938;8.488;2024-02-04T05:52:36;6.70;;;3.30;;
4391;SDS011;2210;51.938;8.488;2024-02-04T05:56:37;6.05;;;3.85;;
4391;SDS011;2210;51.938;8.488;2024-02-04T06:00:37;3.28;;;2.97;;
4391;SDS011;2210;51.938;8.488;2024-02-04T06:04:37;4.22;;;3.05;;
4391;SDS011;2210;51.938;8.488;2024-02-04T06:08:39;4.13;;;3.73;;
4391;SDS011;2210;51.938;8.488;2024-02-04T06:12:39;5.80;;;3.63;;
4391;SDS011;2210;51.938;8.488;2024-02-04T06:16:48;4.57;;;3.50;;
4391;SDS011;2210;51.938;8.488;2024-02-04T06:20:48;4.40;;;3.07;;
4391;SDS011;2210;51.938;8.488;2024-02-04T06:24:48;3.15;;;2.85;;
4391;SDS011;2210;51.938;8.488;2024-02-04T06:28:50;3.70;;;3.30;;
4391;SDS011;2210;51.938;8.488;2024-02-04T06:32:51;3.97;;;3.00;;
4391;SDS011;2210;51.938;8.488;2024-02-04T06:36:51;4.10;;;3.20;;
4391;SDS011;2210;51.938;8.488;2024-02-04T06:40:51;10.30;;;2.70;;
4391;SDS011;2210;51.938;8.488;2024-02-04T06:44:51;3.78;;;3.28;;
4391;SDS011;2210;51.938;8.488;2024-02-04T06:48:52;3.63;;;3.22;;
4391;SDS011;2210;51.938;8.488;2024-02-04T06:52:53;4.50;;;3.67;;
4391;SDS011;2210;51.938;8.488;2024-02-04T06:56:53;3.97;;;3.50;;
4391;SDS011;2210;51.938;8.488;2024-02-04T07:00:53;4.20;;;3.58;;
4391;SDS011;2210;51.938;8.488;2024-02-04T07:04:53;4.70;;;4.20;;
4391;SDS011;2210;51.938;8.488;2024-02-04T07:08:54;4.80;;;4.30;;
4391;SDS011;2210;51.938;8.488;2024-02-04T07:12:54;7.97;;;5.30;;
4391;SDS011;2210;51.938;8.488;2024-02-04T07:16:54;7.88;;;5.03;;
4391;SDS011;2210;51.938;8.488;2024-02-04T07:20:54;8.02;;;5.10;;
4391;SDS011;2210;51.938;8.488;2024-02-04T07:24:55;6.47;;;5.70;;
4391;SDS011;2210;51.938;8.488;2024-02-04T07:28:55;6.03;;;5.43;;
4391;SDS011;2210;51.938;8.488;2024-02-04T07:32:55;7.82;;;6.15;;
4391;SDS011;2210;51.938;8.488;2024-02-04T07:36:56;8.15;;;5.85;;
4391;SDS011;2210;51.938;8.488;2024-02-04T07:40:56;5.93;;;4.53;;
4391;SDS011;2210;51.938;8.488;2024-02-04T07:44:58;6.20;;;5.00;;
4391;SDS011;2210;51.938;8.488;2024-02-04T07:48:59;5.27;;;4.17;;
4391;SDS011;2210;51.938;8.488;2024-02-04T07:52:59;5.22;;;3.63;;
4391;SDS011;2210;51.938;8.488;2024-02-04T07:57:09;3.97;;;3.57;;
4391;SDS011;2210;51.938;8.488;2024-02-04T08:01:10;4.83;;;3.53;;
4391;SDS011;2210;51.938;8.488;2024-02-04T08:05:10;3.95;;;2.83;;
4391;SDS011;2210;51.938;8.488;2024-02-04T08:09:10;4.10;;;3.22;;
4391;SDS011;2210;51.938;8.488;2024-02-04T08:13:11;5.83;;;2.80;;
4391;SDS011;2210;51.938;8.488;2024-02-04T08:17:12;3.57;;;2.60;;
4391;SDS011;2210;51.938;8.488;2024-02-04T08:21:12;6.03;;;2.73;;
4391;SDS011;2210;51.938;8.488;2024-02-04T08:25:12;5.87;;;2.63;;
4391;SDS011;2210;51.938;8.488;2024-02-04T08:29:12;4.10;;;2.30;;
4391;SDS011;2210;51.938;8.488;2024-02-04T08:33:13;6.25;;;2.53;;
4391;SDS011;2210;51.938;8.488;2024-02-04T08:37:13;7.17;;;2.50;;
4391;SDS011;2210;51.938;8.488;2024-02-04T08:41:13;2.63;;;1.70;;
4391;SDS011;2210;51.938;8.488;2024-02-04T08:45:14;3.38;;;1.80;;
4391;SDS011;2210;51.938;8.488;2024-02-04T08:49:14;4.53;;;1.90;;
4391;SDS011;2210;51.938;8.488;2024-02-04T08:53:14;2.72;;;2.00;;
4391;SDS011;2210;51.938;8.488;2024-02-04T08:57:14;3.97;;;1.90;;
4391;SDS011;2210;51.938;8.488;2024-02-04T09:01:15;3.77;;;1.90;;
4391;SDS011;2210;51.938;8.488;2024-02-04T09:05:15;4.60;;;1.50;;
4391;SDS011;2210;51.938;8.488;2024-02-04T09:09:16;2.20;;;1.37;;
4391;SDS011;2210;51.938;8.488;2024-02-04T09:13:16;3.35;;;2.17;;
4391;SDS011;2210;51.938;8.488;2024-02-04T09:17:17;8.60;;;1.67;;
4391;SDS011;2210;51.938;8.488;2024-02-04T09:21:17;1.65;;;1.40;;
4391;SDS011;2210;51.938;8.488;2024-02-04T09:25:20;4.83;;;1.53;;
4391;SDS011;2210;51.938;8.488;2024-02-04T09:29:20;2.80;;;1.60;;
4391;SDS011;2210;51.938;8.488;2024-02-04T09:33:21;3.30;;;1.57;;
4391;SDS011;2210;51.938;8.488;2024-02-04T09:37:24;5.63;;;1.70;;
4391;SDS011;2210;51.938;8.488;2024-02-04T09:41:25;4.07;;;1.60;;
4391;SDS011;2210;51.938;8.488;2024-02-04T09:45:26;4.27;;;1.67;;
4391;SDS011;2210;51.938;8.488;2024-02-04T09:49:27;4.47;;;2.15;;
4391;SDS011;2210;51.938;8.488;2024-02-04T09:53:32;7.70;;;2.93;;
4391;SDS011;2210;51.938;8.488;2024-02-04T09:57:35;6.83;;;2.20;;
4391;SDS011;2210;51.938;8.488;2024-02-04T10:01:36;4.30;;;1.80;;
4391;SDS011;2210;51.938;8.488;2024-02-04T10:05:36;5.20;;;2.50;;
4391;SDS011;2210;51.938;8.488;2024-02-04T10:09:36;5.70;;;2.25;;
4391;SDS011;2210;51.938;8.488;2024-02-04T10:13:46;2.03;;;1.93;;
4391;SDS011;2210;51.938;8.488;2024-02-04T10:17:49;4.53;;;2.40;;
4391;SDS011;2210;51.938;8.488;2024-02-04T10:21:57;2.67;;;2.07;;
4391;SDS011;2210;51.938;8.488;2024-02-04T10:26:00;2.57;;;1.80;;
4391;SDS011;2210;51.938;8.488;2024-02-04T10:30:01;2.30;;;1.67;;
4391;SDS011;2210;51.938;8.488;2024-02-04T10:34:01;3.40;;;2.40;;
4391;SDS011;2210;51.938;8.488;2024-02-04T10:38:04;3.30;;;1.70;;
4391;SDS011;2210;51.938;8.488;2024-02-04T10:42:06;2.50;;;2.17;;
4391;SDS011;2210;51.938;8.488;2024-02-04T10:46:17;2.93;;;1.63;;
4391;SDS011;2210;51.938;8.488;2024-02-04T10:50:19;1.90;;;1.70;;
4391;SDS011;2210;51.938;8.488;2024-02-04T10:54:21;4.40;;;2.40;;
4391;SDS011;2210;51.938;8.488;2024-02-04T10:58:30;2.93;;;1.90;;
4391;SDS011;2210;51.938;8.488;2024-02-04T11:02:31;3.57;;;2.40;;
4391;SDS011;2210;51.938;8.488;2024-02-04T11:06:33;3.63;;;2.10;;
4391;SDS011;2210;51.938;8.488;2024-02-04T11:10:35;2.97;;;2.60;;
4391;SDS011;2210;51.938;8.488;2024-02-04T11:14:39;3.30;;;2.10;;
4391;SDS011;2210;51.938;8.488;2024-02-04T11:18:46;2.63;;;2.40;;
4391;SDS011;2210;51.938;8.488;2024-02-04T11:27:13;3.30;;;2.40;;
4391;SDS011;2210;51.938;8.488;2024-02-04T11:31:14;4.23;;;2.47;;
4391;SDS011;2210;51.938;8.488;2024-02-04T11:35:16;2.10;;;2.00;;
4391;SDS011;2210;51.938;8.488;2024-02-04T11:39:19;3.17;;;2.53;;
4391;SDS011;2210;51.938;8.488;2024-02-04T11:43:26;4.07;;;3.20;;
4391;SDS011;2210;51.938;8.488;2024-02-04T11:47:29;3.50;;;3.00;;
4391;SDS011;2210;51.938;8.488;2024-02-04T11:51:33;3.10;;;2.80;;
4391;SDS011;2210;51.938;8.488;2024-02-04T11:55:35;3.23;;;2.80;;
4391;SDS011;2210;51.938;8.488;2024-02-04T11:59:36;7.83;;;3.10;;
4391;SDS011;2210;51.938;8.488;2024-02-04T12:03:36;3.10;;;2.90;;
4391;SDS011;2210;51.938;8.488;2024-02-04T12:07:37;5.83;;;3.37;;
4391;SDS011;2210;51.938;8.488;2024-02-04T12:11:44;5.00;;;2.80;;
4391;SDS011;2210;51.938;8.488;2024-02-04T12:15:44;4.50;;;3.33;;
4391;SDS011;2210;51.938;8.488;2024-02-04T12:19:45;5.07;;;3.30;;
4391;SDS011;2210;51.938;8.488;2024-02-04T12:23:45;3.00;;;2.80;;
4391;SDS011;2210;51.938;8.488;2024-02-04T12:27:46;3.20;;;2.90;;
4391;SDS011;2210;51.938;8.488;2024-02-04T12:31:48;4.37;;;4.07;;
4391;SDS011;2210;51.938;8.488;2024-02-04T12:35:58;7.17;;;3.10;;
4391;SDS011;2210;51.938;8.488;2024-02-04T12:40:00;3.07;;;2.87;;
4391;SDS011;2210;51.938;8.488;2024-02-04T12:44:02;2.50;;;2.40;;
4391;SDS011;2210;51.938;8.488;2024-02-04T12:48:05;3.87;;;3.10;;
4391;SDS011;2210;51.938;8.488;2024-02-04T12:52:06;2.50;;;2.30;;
4391;SDS011;2210;51.938;8.488;2024-02-04T12:56:07;2.33;;;2.23;;
4391;SDS011;2210;51.938;8.488;2024-02-04T13:00:07;2.40;;;2.20;;
4391;SDS011;2210;51.938;8.488;2024-02-04T13:04:10;3.00;;;2.60;;
4391;SDS011;2210;51.938;8.488;2024-02-04T13:08:11;3.53;;;3.20;;
4391;SDS011;2210;51.938;8.488;2024-02-04T13:12:11;3.33;;;2.20;;
4391;SDS011;2210;51.938;8.488;2024-02-04T13:16:15;4.20;;;2.83;;
4391;SDS011;2210;51.938;8.488;2024-02-04T13:20:15;2.80;;;2.17;;
4391;SDS011;2210;51.938;8.488;2024-02-04T13:24:18;2.43;;;2.03;;
4391;SDS011;2210;51.938;8.488;2024-02-04T13:28:21;1.70;;;1.60;;
4391;SDS011;2210;51.938;8.488;2024-02-04T13:32:26;2.20;;;2.00;;
4391;SDS011;2210;51.938;8.488;2024-02-04T13:36:26;1.60;;;1.50;;
4391;SDS011;2210;51.938;8.488;2024-02-04T13:40:29;2.50;;;2.30;;
4391;SDS011;2210;51.938;8.488;2024-02-04T13:44:29;2.37;;;2.20;;
4391;SDS011;2210;51.938;8.488;2024-02-04T13:48:30;3.67;;;1.92;;
4391;SDS011;2210;51.938;8.488;2024-02-04T13:52:30;1.67;;;1.57;;
4391;SDS011;2210;51.938;8.488;2024-02-04T13:56:37;2.00;;;1.90;;
4391;SDS011;2210;51.938;8.488;2024-02-04T14:05:20;1.90;;;1.80;;
4391;SDS011;2210;51.938;8.488;2024-02-04T14:09:26;1.30;;;1.30;;
4391;SDS011;2210;51.938;8.488;2024-02-04T14:13:33;1.60;;;1.50;;
4391;SDS011;2210;51.938;8.488;2024-02-04T14:17:34;1.37;;;1.27;;
4391;SDS011;2210;51.938;8.488;2024-02-04T14:21:37;3.03;;;1.25;;
4391;SDS011;2210;51.938;8.488;2024-02-04T14:25:37;1.63;;;1.27;;
4391;SDS011;2210;51.938;8.488;2024-02-04T14:29:38;0.95;;;0.95;;
4391;SDS011;2210;51.938;8.488;2024-02-04T14:33:50;1.30;;;1.20;;
4391;SDS011;2210;51.938;8.488;2024-02-04T14:37:50;1.60;;;1.50;;
4391;SDS011;2210;51.938;8.488;2024-02-04T14:41:51;1.35;;;1.25;;
4391;SDS011;2210;51.938;8.488;2024-02-04T14:45:53;2.30;;;1.80;;
4391;SDS011;2210;51.938;8.488;2024-02-04T14:50:06;2.25;;;1.73;;
4391;SDS011;2210;51.938;8.488;2024-02-04T14:54:12;2.50;;;1.67;;
4391;SDS011;2210;51.938;8.488;2024-02-04T14:58:13;1.90;;;1.80;;
4391;SDS011;2210;51.938;8.488;2024-02-04T15:02:19;1.87;;;1.67;;
4391;SDS011;2210;51.938;8.488;2024-02-04T15:06:22;5.03;;;1.87;;
4391;SDS011;2210;51.938;8.488;2024-02-04T15:10:38;3.13;;;1.63;;
4391;SDS011;2210;51.938;8.488;2024-02-04T15:14:41;6.17;;;2.13;;
4391;SDS011;2210;51.938;8.488;2024-02-04T15:18:48;1.80;;;1.67;;
4391;SDS011;2210;51.938;8.488;2024-02-04T15:22:49;2.13;;;2.00;;
4391;SDS011;2210;51.938;8.488;2024-02-04T15:26:49;2.47;;;1.33;;
4391;SDS011;2210;51.938;8.488;2024-02-04T15:30:52;1.80;;;1.70;;
4391;SDS011;2210;51.938;8.488;2024-02-04T15:34:52;1.63;;;1.43;;
4391;SDS011;2210;51.938;8.488;2024-02-04T15:43:11;1.70;;;1.60;;
4391;SDS011;2210;51.938;8.488;2024-02-04T15:47:23;1.27;;;1.17;;
4391;SDS011;2210;51.938;8.488;2024-02-04T15:51:28;4.20;;;1.70;;
4391;SDS011;2210;51.938;8.488;2024-02-04T15:55:29;2.03;;;1.37;;
4391;SDS011;2210;51.938;8.488;2024-02-04T16:04:17;1.13;;;1.13;;
4391;SDS011;2210;51.938;8.488;2024-02-04T16:08:18;1.37;;;1.27;;
4391;SDS011;2210;51.938;8.488;2024-02-04T16:12:24;1.30;;;1.20;;
4391;SDS011;2210;51.938;8.488;2024-02-04T16:16:43;1.50;;;1.40;;
4391;SDS011;2210;51.938;8.488;2024-02-04T16:20:51;1.77;;;1.40;;
4391;SDS011;2210;51.938;8.488;2024-02-04T16:25:11;1.20;;;1.10;;
4391;SDS011;2210;51.938;8.488;2024-02-04T16:29:17;1.30;;;1.20;;
4391;SDS011;2210;51.938;8.488;2024-02-04T17:43:02;2.23;;;2.03;;
4391;SDS011;2210;51.938;8.488;2024-02-04T17:47:03;2.60;;;2.40;;
4391;SDS011;2210;51.938;8.488;2024-02-04T17:51:04;1.80;;;1.70;;
4391;SDS011;2210;51.938;8.488;2024-02-04T17:55:16;1.60;;;1.50;;
4391;SDS011;2210;51.938;8.488;2024-02-04T17:59:17;2.23;;;2.03;;
4391;SDS011;2210;51.938;8.488;2024-02-04T18:03:20;1.80;;;1.70;;
4391;SDS011;2210;51.938;8.488;2024-02-04T18:07:30;4.47;;;2.30;;
4391;SDS011;2210;51.938;8.488;2024-02-04T18:11:33;2.00;;;1.80;;
4391;SDS011;2210;51.938;8.488;2024-02-04T18:15:34;2.40;;;1.70;;
4391;SDS011;2210;51.938;8.488;2024-02-04T18:19:37;2.00;;;1.90;;
4391;SDS011;2210;51.938;8.488;2024-02-04T18:23:42;1.93;;;1.73;;
4391;SDS011;2210;51.938;8.488;2024-02-04T18:27:48;2.30;;;2.13;;
4391;SDS011;2210;51.938;8.488;2024-02-04T18:31:49;2.10;;;2.00;;
4391;SDS011;2210;51.938;8.488;2024-02-04T18:36:04;2.90;;;2.53;;
4391;SDS011;2210;51.938;8.488;2024-02-04T18:40:08;2.70;;;2.50;;
4391;SDS011;2210;51.938;8.488;2024-02-04T18:44:09;2.60;;;2.40;;
4391;SDS011;2210;51.938;8.488;2024-02-04T18:48:17;2.87;;;2.67;;
4391;SDS011;2210;51.938;8.488;2024-02-04T18:52:17;3.33;;;3.03;;
4391;SDS011;2210;51.938;8.488;2024-02-04T18:56:21;3.50;;;3.20;;
4391;SDS011;2210;51.938;8.488;2024-02-04T19:00:22;3.60;;;3.30;;
4391;SDS011;2210;51.938;8.488;2024-02-04T19:04:22;6.43;;;4.17;;
4391;SDS011;2210;51.938;8.488;2024-02-04T19:08:27;5.37;;;3.63;;
4391;SDS011;2210;51.938;8.488;2024-02-04T19:12:36;5.37;;;3.90;;
4391;SDS011;2210;51.938;8.488;2024-02-04T19:16:41;15.73;;;6.30;;
4391;SDS011;2210;51.938;8.488;2024-02-04T19:20:44;11.67;;;5.13;;
4391;SDS011;2210;51.938;8.488;2024-02-04T19:24:47;11.43;;;6.37;;
4391;SDS011;2210;51.938;8.488;2024-02-04T19:28:48;9.40;;;5.43;;
4391;SDS011;2210;51.938;8.488;2024-02-04T19:32:49;8.75;;;5.63;;
4391;SDS011;2210;51.938;8.488;2024-02-04T19:36:50;9.30;;;5.90;;
4391;SDS011;2210;51.938;8.488;2024-02-04T19:40:50;12.73;;;7.03;;
4391;SDS011;2210;51.938;8.488;2024-02-04T19:44:53;9.73;;;7.03;;
4391;SDS011;2210;51.938;8.488;2024-02-04T19:48:53;12.10;;;6.50;;
4391;SDS011;2210;51.938;8.488;2024-02-04T19:52:53;14.70;;;6.45;;
4391;SDS011;2210;51.938;8.488;2024-02-04T19:57:03;12.07;;;6.13;;
4391;SDS011;2210;51.938;8.488;2024-02-04T20:01:04;6.40;;;4.40;;
4391;SDS011;2210;51.938;8.488;2024-02-04T20:05:07;6.80;;;4.78;;
4391;SDS011;2210;51.938;8.488;2024-02-04T20:09:11;4.07;;;3.67;;
4391;SDS011;2210;51.938;8.488;2024-02-04T20:13:11;4.80;;;3.47;;
4391;SDS011;2210;51.938;8.488;2024-02-04T20:17:17;4.77;;;3.53;;
4391;SDS011;2210;51.938;8.488;2024-02-04T20:21:17;5.63;;;3.80;;
4391;SDS011;2210;51.938;8.488;2024-02-04T20:25:18;3.08;;;2.75;;
4391;SDS011;2210;51.938;8.488;2024-02-04T20:33:48;3.17;;;2.87;;
4391;SDS011;2210;51.938;8.488;2024-02-04T20:37:51;6.20;;;3.77;;
4391;SDS011;2210;51.938;8.488;2024-02-04T20:41:55;6.17;;;3.80;;
4391;SDS011;2210;51.938;8.488;2024-02-04T20:46:11;4.60;;;3.50;;
4391;SDS011;2210;51.938;8.488;2024-02-04T20:50:11;9.30;;;3.80;;
4391;SDS011;2210;51.938;8.488;2024-02-04T20:54:15;5.87;;;3.80;;
4391;SDS011;2210;51.938;8.488;2024-02-04T20:58:18;3.43;;;2.53;;
4391;SDS011;2210;51.938;8.488;2024-02-04T21:02:19;4.50;;;2.97;;
4391;SDS011;2210;51.938;8.488;2024-02-04T21:06:19;5.00;;;3.57;;
4391;SDS011;2210;51.938;8.488;2024-02-04T21:10:20;3.63;;;2.93;;
4391;SDS011;2210;51.938;8.488;2024-02-04T21:14:30;6.20;;;3.60;;
4391;SDS011;2210;51.938;8.488;2024-02-04T21:18:33;8.00;;;3.60;;
4391;SDS011;2210;51.938;8.488;2024-02-04T21:22:33;6.10;;;3.70;;
4391;SDS011;2210;51.938;8.488;2024-02-04T21:26:36;6.40;;;4.40;;
4391;SDS011;2210;51.938;8.488;2024-02-04T21:30:39;9.40;;;5.67;;
4391;SDS011;2210;51.938;8.488;2024-02-04T21:34:40;9.27;;;4.00;;
4391;SDS011;2210;51.938;8.488;2024-02-04T21:38:40;4.00;;;3.28;;
4391;SDS011;2210;51.938;8.488;2024-02-04T21:42:43;3.42;;;3.10;;
4391;SDS011;2210;51.938;8.488;2024-02-04T21:46:49;3.97;;;3.13;;
4391;SDS011;2210;51.938;8.488;2024-02-04T21:50:50;6.73;;;3.37;;
4391;SDS011;2210;51.938;8.488;2024-02-04T21:54:51;2.97;;;2.67;;
4391;SDS011;2210;51.938;8.488;2024-02-04T21:58:52;3.03;;;2.47;;
4391;SDS011;2210;51.938;8.488;2024-02-04T22:02:52;3.33;;;3.03;;
4391;SDS011;2210;51.938;8.488;2024-02-04T22:06:52;4.30;;;2.65;;
4391;SDS011;2210;51.938;8.488;2024-02-04T22:10:58;3.27;;;2.97;;
4391;SDS011;2210;51.938;8.488;2024-02-04T22:15:06;3.27;;;2.97;;
4391;SDS011;2210;51.938;8.488;2024-02-04T22:19:14;3.10;;;2.80;;
4391;SDS011;2210;51.938;8.488;2024-02-04T22:23:17;4.40;;;3.07;;
4391;SDS011;2210;51.938;8.488;2024-02-04T22:27:20;3.30;;;3.00;;
4391;SDS011;2210;51.938;8.488;2024-02-04T22:31:21;3.57;;;3.27;;
4391;SDS011;2210;51.938;8.488;2024-02-04T22:35:21;5.23;;;3.67;;
4391;SDS011;2210;51.938;8.488;2024-02-04T22:39:21;2.93;;;2.73;;
4391;SDS011;2210;51.938;8.488;2024-02-04T22:43:25;3.22;;;2.92;;
4391;SDS011;2210;51.938;8.488;2024-02-04T22:47:31;3.20;;;2.90;;
4391;SDS011;2210;51.938;8.488;2024-02-04T22:51:35;3.53;;;3.23;;
4391;SDS011;2210;51.938;8.488;2024-02-04T22:55:38;3.20;;;3.00;;
4391;SDS011;2210;51.938;8.488;2024-02-04T22:59:38;5.05;;;3.83;;
4391;SDS011;2210;51.938;8.488;2024-02-04T23:03:38;3.25;;;3.05;;
4391;SDS011;2210;51.938;8.488;2024-02-04T23:07:44;5.68;;;3.72;;
4391;SDS011;2210;51.938;8.488;2024-02-04T23:11:45;3.70;;;3.13;;
4391;SDS011;2210;51.938;8.488;2024-02-04T23:15:48;4.00;;;3.60;;
4391;SDS011;2210;51.938;8.488;2024-02-04T23:19:51;5.23;;;3.90;;
4391;SDS011;2210;51.938;8.488;2024-02-04T23:23:52;5.80;;;4.47;;
4391;SDS011;2210;51.938;8.488;2024-02-04T23:27:55;4.35;;;3.80;;
4391;SDS011;2210;51.938;8.488;2024-02-04T23:31:55;4.87;;;4.40;;
4391;SDS011;2210;51.938;8.488;2024-02-04T23:35:56;6.00;;;4.40;;
4391;SDS011;2210;51.938;8.488;2024-02-04T23:39:56;11.30;;;3.93;;
4391;SDS011;2210;51.938;8.488;2024-02-04T23:43:56;4.83;;;4.27;;
4391;SDS011;2210;51.938;8.488;2024-02-04T23:47:57;6.60;;;4.10;;
4391;SDS011;2210;51.938;8.488;2024-02-04T23:51:57;5.50;;;4.50;;
4391;SDS011;2210;51.938;8.488;2024-02-04T23:55:57;9.27;;;4.00;;
4391;SDS011;2210;51.938;8.488;2024-02-04T23:59:58;4.53;;;4.10;;
